sensor_id;sensor_type;location;lat;lon;timestamp;P1;durP1;ratioP1;P2;durP2;ratioP2
38379;SDS011;38377;47.418;18.882;2024-03-22T00:00:23;16.45;;;8.95;;
38379;SDS011;38377;47.418;18.882;2024-03-22T00:02:51;18.17;;;8.95;;
38379;SDS011;38377;47.418;18.882;2024-03-22T00:05:16;17.38;;;8.23;;
38379;SDS011;38377;47.418;18.882;2024-03-22T00:07:42;19.75;;;8.65;;
38379;SDS011;38377;47.418;18.882;2024-03-22T00:10:08;14.75;;;8.45;;
38379;SDS011;38377;47.418;18.882;2024-03-22T00:12:33;14.93;;;9.05;;
38379;SDS011;38377;47.418;18.882;2024-03-22T00:14:59;16.25;;;8.25;;
38379;SDS011;38377;47.418;18.882;2024-03-22T00:17:24;18.00;;;9.15;;
38379;SDS011;38377;47.418;18.882;2024-03-22T00:19:50;14.93;;;8.45;;
38379;SDS011;38377;47.418;18.882;2024-03-22T00:22:16;15.82;;;8.63;;
38379;SDS011;38377;47.418;18.882;2024-03-22T00:24:41;16.98;;;8.35;;
38379;SDS011;38377;47.418;18.882;2024-03-22T00:27:07;15.90;;;8.32;;
38379;SDS011;38377;47.418;18.882;2024-03-22T00:29:32;14.95;;;7.38;;
38379;SDS011;38377;47.418;18.882;2024-03-22T00:32:00;16.05;;;8.32;;
38379;SDS011;38377;47.418;18.882;2024-03-22T00:34:26;19.98;;;8.93;;
38379;SDS011;38377;47.418;18.882;2024-03-22T00:36:51;15.75;;;8.68;;
38379;SDS011;38377;47.418;18.882;2024-03-22T00:39:17;17.23;;;8.10;;
38379;SDS011;38377;47.418;18.882;2024-03-22T00:41:43;17.00;;;7.63;;
38379;SDS011;38377;47.418;18.882;2024-03-22T00:44:08;19.30;;;7.55;;
38379;SDS011;38377;47.418;18.882;2024-03-22T00:46:34;14.98;;;7.97;;
38379;SDS011;38377;47.418;18.882;2024-03-22T00:49:00;18.67;;;8.95;;
38379;SDS011;38377;47.418;18.882;2024-03-22T00:51:26;15.27;;;8.45;;
38379;SDS011;38377;47.418;18.882;2024-03-22T00:53:52;19.63;;;8.57;;
38379;SDS011;38377;47.418;18.882;2024-03-22T00:56:18;19.52;;;8.18;;
38379;SDS011;38377;47.418;18.882;2024-03-22T00:58:43;13.50;;;8.13;;
38379;SDS011;38377;47.418;18.882;2024-03-22T01:01:09;16.98;;;8.00;;
38379;SDS011;38377;47.418;18.882;2024-03-22T01:03:34;17.08;;;8.52;;
38379;SDS011;38377;47.418;18.882;2024-03-22T01:06:00;15.02;;;8.48;;
38379;SDS011;38377;47.418;18.882;2024-03-22T01:08:27;16.15;;;7.75;;
38379;SDS011;38377;47.418;18.882;2024-03-22T01:10:53;17.27;;;8.35;;
38379;SDS011;38377;47.418;18.882;2024-03-22T01:13:18;16.75;;;9.10;;
38379;SDS011;38377;47.418;18.882;2024-03-22T01:15:44;16.63;;;8.27;;
38379;SDS011;38377;47.418;18.882;2024-03-22T01:18:11;16.08;;;8.88;;
38379;SDS011;38377;47.418;18.882;2024-03-22T01:20:37;21.05;;;9.63;;
38379;SDS011;38377;47.418;18.882;2024-03-22T01:23:02;17.75;;;9.25;;
38379;SDS011;38377;47.418;18.882;2024-03-22T01:25:29;20.67;;;10.02;;
38379;SDS011;38377;47.418;18.882;2024-03-22T01:27:55;19.48;;;9.80;;
38379;SDS011;38377;47.418;18.882;2024-03-22T01:30:21;19.52;;;9.02;;
38379;SDS011;38377;47.418;18.882;2024-03-22T01:32:47;14.15;;;8.13;;
38379;SDS011;38377;47.418;18.882;2024-03-22T01:35:13;15.23;;;8.18;;
38379;SDS011;38377;47.418;18.882;2024-03-22T01:37:38;19.60;;;8.80;;
38379;SDS011;38377;47.418;18.882;2024-03-22T01:40:04;18.30;;;8.25;;
38379;SDS011;38377;47.418;18.882;2024-03-22T01:42:30;15.65;;;8.25;;
38379;SDS011;38377;47.418;18.882;2024-03-22T01:44:56;16.27;;;8.70;;
38379;SDS011;38377;47.418;18.882;2024-03-22T01:47:21;17.13;;;8.70;;
38379;SDS011;38377;47.418;18.882;2024-03-22T01:49:47;19.92;;;8.23;;
38379;SDS011;38377;47.418;18.882;2024-03-22T01:52:15;13.63;;;8.60;;
38379;SDS011;38377;47.418;18.882;2024-03-22T01:54:41;18.48;;;8.43;;
38379;SDS011;38377;47.418;18.882;2024-03-22T01:57:07;14.73;;;8.13;;
38379;SDS011;38377;47.418;18.882;2024-03-22T01:59:33;18.33;;;8.98;;
38379;SDS011;38377;47.418;18.882;2024-03-22T02:01:59;15.23;;;8.88;;
38379;SDS011;38377;47.418;18.882;2024-03-22T02:04:25;19.25;;;8.63;;
38379;SDS011;38377;47.418;18.882;2024-03-22T02:06:50;18.10;;;9.32;;
38379;SDS011;38377;47.418;18.882;2024-03-22T02:09:16;16.88;;;8.43;;
38379;SDS011;38377;47.418;18.882;2024-03-22T02:11:43;16.17;;;8.20;;
38379;SDS011;38377;47.418;18.882;2024-03-22T02:14:08;16.55;;;8.75;;
38379;SDS011;38377;47.418;18.882;2024-03-22T02:16:34;14.82;;;7.85;;
38379;SDS011;38377;47.418;18.882;2024-03-22T02:19:02;17.80;;;9.15;;
38379;SDS011;38377;47.418;18.882;2024-03-22T02:21:28;16.35;;;9.88;;
38379;SDS011;38377;47.418;18.882;2024-03-22T02:23:53;17.23;;;10.05;;
38379;SDS011;38377;47.418;18.882;2024-03-22T02:26:19;18.48;;;9.70;;
38379;SDS011;38377;47.418;18.882;2024-03-22T02:28:45;18.50;;;9.68;;
38379;SDS011;38377;47.418;18.882;2024-03-22T02:31:10;17.67;;;8.75;;
38379;SDS011;38377;47.418;18.882;2024-03-22T02:33:36;16.50;;;9.27;;
38379;SDS011;38377;47.418;18.882;2024-03-22T02:36:01;23.10;;;9.68;;
38379;SDS011;38377;47.418;18.882;2024-03-22T02:38:27;20.90;;;10.52;;
38379;SDS011;38377;47.418;18.882;2024-03-22T02:40:52;19.77;;;10.05;;
38379;SDS011;38377;47.418;18.882;2024-03-22T02:43:18;18.38;;;9.45;;
38379;SDS011;38377;47.418;18.882;2024-03-22T02:45:46;17.52;;;10.15;;
38379;SDS011;38377;47.418;18.882;2024-03-22T02:48:12;19.90;;;9.48;;
38379;SDS011;38377;47.418;18.882;2024-03-22T02:50:38;18.42;;;9.80;;
38379;SDS011;38377;47.418;18.882;2024-03-22T02:53:04;16.88;;;10.32;;
38379;SDS011;38377;47.418;18.882;2024-03-22T02:55:30;16.20;;;10.63;;
38379;SDS011;38377;47.418;18.882;2024-03-22T02:57:56;18.33;;;9.30;;
38379;SDS011;38377;47.418;18.882;2024-03-22T03:00:22;20.67;;;10.90;;
38379;SDS011;38377;47.418;18.882;2024-03-22T03:02:48;20.42;;;10.20;;
38379;SDS011;38377;47.418;18.882;2024-03-22T03:05:14;18.17;;;10.30;;
38379;SDS011;38377;47.418;18.882;2024-03-22T03:07:39;20.10;;;10.25;;
38379;SDS011;38377;47.418;18.882;2024-03-22T03:10:06;19.65;;;9.48;;
38379;SDS011;38377;47.418;18.882;2024-03-22T03:12:32;20.05;;;10.68;;
38379;SDS011;38377;47.418;18.882;2024-03-22T03:14:58;17.92;;;9.73;;
38379;SDS011;38377;47.418;18.882;2024-03-22T03:17:23;19.50;;;10.70;;
38379;SDS011;38377;47.418;18.882;2024-03-22T03:19:49;21.27;;;9.88;;
38379;SDS011;38377;47.418;18.882;2024-03-22T03:22:14;21.73;;;10.55;;
38379;SDS011;38377;47.418;18.882;2024-03-22T03:24:40;18.95;;;10.68;;
38379;SDS011;38377;47.418;18.882;2024-03-22T03:27:06;15.30;;;9.38;;
38379;SDS011;38377;47.418;18.882;2024-03-22T03:29:32;23.55;;;11.05;;
38379;SDS011;38377;47.418;18.882;2024-03-22T03:31:57;18.45;;;10.73;;
38379;SDS011;38377;47.418;18.882;2024-03-22T03:34:23;15.98;;;10.02;;
38379;SDS011;38377;47.418;18.882;2024-03-22T03:36:48;20.88;;;11.50;;
38379;SDS011;38377;47.418;18.882;2024-03-22T03:39:14;17.17;;;10.68;;
38379;SDS011;38377;47.418;18.882;2024-03-22T03:41:40;17.60;;;10.50;;
38379;SDS011;38377;47.418;18.882;2024-03-22T03:44:05;17.35;;;10.25;;
38379;SDS011;38377;47.418;18.882;2024-03-22T03:46:31;17.25;;;9.63;;
38379;SDS011;38377;47.418;18.882;2024-03-22T03:48:57;20.15;;;10.65;;
38379;SDS011;38377;47.418;18.882;2024-03-22T03:51:22;19.63;;;11.18;;
38379;SDS011;38377;47.418;18.882;2024-03-22T03:53:48;19.10;;;10.63;;
38379;SDS011;38377;47.418;18.882;2024-03-22T03:56:13;18.00;;;10.38;;
38379;SDS011;38377;47.418;18.882;2024-03-22T03:58:39;18.15;;;10.93;;
38379;SDS011;38377;47.418;18.882;2024-03-22T04:01:08;17.00;;;10.45;;
38379;SDS011;38377;47.418;18.882;2024-03-22T04:03:34;19.48;;;12.55;;
38379;SDS011;38377;47.418;18.882;2024-03-22T04:06:00;16.15;;;10.48;;
38379;SDS011;38377;47.418;18.882;2024-03-22T04:08:26;19.80;;;11.60;;
38379;SDS011;38377;47.418;18.882;2024-03-22T04:10:53;18.80;;;10.27;;
38379;SDS011;38377;47.418;18.882;2024-03-22T04:13:21;17.25;;;10.30;;
38379;SDS011;38377;47.418;18.882;2024-03-22T04:15:46;17.73;;;10.48;;
38379;SDS011;38377;47.418;18.882;2024-03-22T04:18:12;18.90;;;11.40;;
38379;SDS011;38377;47.418;18.882;2024-03-22T04:20:37;19.02;;;11.35;;
38379;SDS011;38377;47.418;18.882;2024-03-22T04:23:03;19.85;;;10.30;;
38379;SDS011;38377;47.418;18.882;2024-03-22T04:25:29;18.23;;;10.60;;
38379;SDS011;38377;47.418;18.882;2024-03-22T04:27:55;17.23;;;11.00;;
38379;SDS011;38377;47.418;18.882;2024-03-22T04:30:20;21.17;;;12.35;;
38379;SDS011;38377;47.418;18.882;2024-03-22T04:32:46;17.77;;;10.57;;
38379;SDS011;38377;47.418;18.882;2024-03-22T04:35:11;21.00;;;11.13;;
38379;SDS011;38377;47.418;18.882;2024-03-22T04:37:37;18.65;;;10.95;;
38379;SDS011;38377;47.418;18.882;2024-03-22T04:40:03;18.90;;;10.90;;
38379;SDS011;38377;47.418;18.882;2024-03-22T04:42:29;20.35;;;12.48;;
38379;SDS011;38377;47.418;18.882;2024-03-22T04:44:54;17.58;;;10.32;;
38379;SDS011;38377;47.418;18.882;2024-03-22T04:47:20;21.17;;;10.90;;
38379;SDS011;38377;47.418;18.882;2024-03-22T04:49:46;16.98;;;10.00;;
38379;SDS011;38377;47.418;18.882;2024-03-22T04:52:11;18.40;;;11.65;;
38379;SDS011;38377;47.418;18.882;2024-03-22T04:54:37;16.70;;;10.65;;
38379;SDS011;38377;47.418;18.882;2024-03-22T04:57:02;19.38;;;10.65;;
38379;SDS011;38377;47.418;18.882;2024-03-22T04:59:28;15.48;;;10.85;;
38379;SDS011;38377;47.418;18.882;2024-03-22T05:01:54;16.17;;;9.98;;
38379;SDS011;38377;47.418;18.882;2024-03-22T05:04:19;16.90;;;11.00;;
38379;SDS011;38377;47.418;18.882;2024-03-22T05:06:45;16.38;;;10.35;;
38379;SDS011;38377;47.418;18.882;2024-03-22T05:09:10;16.67;;;9.60;;
38379;SDS011;38377;47.418;18.882;2024-03-22T05:11:36;17.65;;;10.77;;
38379;SDS011;38377;47.418;18.882;2024-03-22T05:14:02;15.52;;;10.40;;
38379;SDS011;38377;47.418;18.882;2024-03-22T05:16:28;18.63;;;9.95;;
38379;SDS011;38377;47.418;18.882;2024-03-22T05:18:53;18.10;;;10.50;;
38379;SDS011;38377;47.418;18.882;2024-03-22T05:21:19;16.60;;;10.32;;
38379;SDS011;38377;47.418;18.882;2024-03-22T05:23:45;16.48;;;10.68;;
38379;SDS011;38377;47.418;18.882;2024-03-22T05:26:11;21.48;;;10.32;;
38379;SDS011;38377;47.418;18.882;2024-03-22T05:28:36;19.13;;;10.85;;
38379;SDS011;38377;47.418;18.882;2024-03-22T05:31:02;19.75;;;11.55;;
38379;SDS011;38377;47.418;18.882;2024-03-22T05:33:28;20.08;;;11.13;;
38379;SDS011;38377;47.418;18.882;2024-03-22T05:35:53;20.00;;;11.80;;
38379;SDS011;38377;47.418;18.882;2024-03-22T05:38:19;22.67;;;12.85;;
38379;SDS011;38377;47.418;18.882;2024-03-22T05:40:44;16.95;;;11.77;;
38379;SDS011;38377;47.418;18.882;2024-03-22T05:43:12;17.42;;;11.43;;
38379;SDS011;38377;47.418;18.882;2024-03-22T05:45:38;24.77;;;13.23;;
38379;SDS011;38377;47.418;18.882;2024-03-22T05:48:04;19.13;;;11.75;;
38379;SDS011;38377;47.418;18.882;2024-03-22T05:50:30;21.40;;;11.77;;
38379;SDS011;38377;47.418;18.882;2024-03-22T05:52:56;18.20;;;11.45;;
38379;SDS011;38377;47.418;18.882;2024-03-22T05:55:21;18.75;;;12.05;;
38379;SDS011;38377;47.418;18.882;2024-03-22T05:57:47;20.98;;;11.52;;
38379;SDS011;38377;47.418;18.882;2024-03-22T06:00:12;20.23;;;11.80;;
38379;SDS011;38377;47.418;18.882;2024-03-22T06:02:38;18.33;;;10.90;;
38379;SDS011;38377;47.418;18.882;2024-03-22T06:05:04;18.08;;;11.80;;
38379;SDS011;38377;47.418;18.882;2024-03-22T06:07:30;16.95;;;10.35;;
38379;SDS011;38377;47.418;18.882;2024-03-22T06:10:04;16.33;;;11.10;;
38379;SDS011;38377;47.418;18.882;2024-03-22T06:12:30;18.80;;;10.80;;
38379;SDS011;38377;47.418;18.882;2024-03-22T06:14:55;17.35;;;11.10;;
38379;SDS011;38377;47.418;18.882;2024-03-22T06:17:21;19.13;;;11.70;;
38379;SDS011;38377;47.418;18.882;2024-03-22T06:19:47;18.17;;;11.23;;
38379;SDS011;38377;47.418;18.882;2024-03-22T06:22:12;16.30;;;10.55;;
38379;SDS011;38377;47.418;18.882;2024-03-22T06:24:38;19.25;;;10.57;;
38379;SDS011;38377;47.418;18.882;2024-03-22T06:27:04;18.13;;;10.80;;
38379;SDS011;38377;47.418;18.882;2024-03-22T06:29:30;18.17;;;11.40;;
38379;SDS011;38377;47.418;18.882;2024-03-22T06:31:56;19.50;;;11.43;;
38379;SDS011;38377;47.418;18.882;2024-03-22T06:34:21;19.67;;;11.20;;
38379;SDS011;38377;47.418;18.882;2024-03-22T06:36:47;19.40;;;11.75;;
38379;SDS011;38377;47.418;18.882;2024-03-22T06:39:12;16.25;;;10.70;;
38379;SDS011;38377;47.418;18.882;2024-03-22T06:41:39;15.38;;;9.82;;
38379;SDS011;38377;47.418;18.882;2024-03-22T06:44:05;18.38;;;10.93;;
38379;SDS011;38377;47.418;18.882;2024-03-22T06:46:30;16.85;;;11.38;;
38379;SDS011;38377;47.418;18.882;2024-03-22T06:48:57;16.40;;;12.13;;
38379;SDS011;38377;47.418;18.882;2024-03-22T06:51:23;19.13;;;10.82;;
38379;SDS011;38377;47.418;18.882;2024-03-22T06:53:48;14.88;;;10.50;;
38379;SDS011;38377;47.418;18.882;2024-03-22T06:56:14;18.50;;;11.90;;
38379;SDS011;38377;47.418;18.882;2024-03-22T06:58:40;16.80;;;11.38;;
38379;SDS011;38377;47.418;18.882;2024-03-22T07:01:05;21.17;;;11.40;;
38379;SDS011;38377;47.418;18.882;2024-03-22T07:03:31;19.13;;;11.15;;
38379;SDS011;38377;47.418;18.882;2024-03-22T07:05:57;18.67;;;11.20;;
38379;SDS011;38377;47.418;18.882;2024-03-22T07:08:23;16.02;;;9.85;;
38379;SDS011;38377;47.418;18.882;2024-03-22T07:10:50;19.73;;;10.90;;
38379;SDS011;38377;47.418;18.882;2024-03-22T07:13:18;19.92;;;10.65;;
38379;SDS011;38377;47.418;18.882;2024-03-22T07:15:46;16.70;;;11.80;;
38379;SDS011;38377;47.418;18.882;2024-03-22T07:18:12;16.55;;;11.18;;
38379;SDS011;38377;47.418;18.882;2024-03-22T07:20:41;18.23;;;12.73;;
38379;SDS011;38377;47.418;18.882;2024-03-22T07:23:07;23.80;;;12.73;;
38379;SDS011;38377;47.418;18.882;2024-03-22T07:25:33;19.00;;;10.73;;
38379;SDS011;38377;47.418;18.882;2024-03-22T07:27:59;15.55;;;11.30;;
38379;SDS011;38377;47.418;18.882;2024-03-22T07:30:27;19.08;;;11.77;;
38379;SDS011;38377;47.418;18.882;2024-03-22T07:32:53;16.67;;;10.73;;
38379;SDS011;38377;47.418;18.882;2024-03-22T07:35:18;19.45;;;11.90;;
38379;SDS011;38377;47.418;18.882;2024-03-22T07:37:44;17.20;;;11.82;;
38379;SDS011;38377;47.418;18.882;2024-03-22T07:40:10;17.02;;;11.15;;
38379;SDS011;38377;47.418;18.882;2024-03-22T07:42:35;18.90;;;11.50;;
38379;SDS011;38377;47.418;18.882;2024-03-22T07:45:01;18.92;;;11.55;;
38379;SDS011;38377;47.418;18.882;2024-03-22T07:47:26;17.35;;;11.43;;
38379;SDS011;38377;47.418;18.882;2024-03-22T07:49:53;15.02;;;10.52;;
38379;SDS011;38377;47.418;18.882;2024-03-22T07:52:19;16.77;;;11.10;;
38379;SDS011;38377;47.418;18.882;2024-03-22T07:54:44;16.15;;;11.73;;
38379;SDS011;38377;47.418;18.882;2024-03-22T07:57:10;18.08;;;12.00;;
38379;SDS011;38377;47.418;18.882;2024-03-22T07:59:35;19.95;;;11.93;;
38379;SDS011;38377;47.418;18.882;2024-03-22T08:02:04;18.23;;;11.15;;
38379;SDS011;38377;47.418;18.882;2024-03-22T08:04:29;17.58;;;12.32;;
38379;SDS011;38377;47.418;18.882;2024-03-22T08:06:55;18.83;;;12.30;;
38379;SDS011;38377;47.418;18.882;2024-03-22T08:09:20;19.85;;;12.32;;
38379;SDS011;38377;47.418;18.882;2024-03-22T08:11:47;17.42;;;11.45;;
38379;SDS011;38377;47.418;18.882;2024-03-22T08:14:13;17.10;;;12.55;;
38379;SDS011;38377;47.418;18.882;2024-03-22T08:16:38;19.90;;;11.82;;
38379;SDS011;38377;47.418;18.882;2024-03-22T08:19:04;19.55;;;12.10;;
38379;SDS011;38377;47.418;18.882;2024-03-22T08:21:29;19.85;;;12.50;;
38379;SDS011;38377;47.418;18.882;2024-03-22T08:23:55;18.58;;;12.82;;
38379;SDS011;38377;47.418;18.882;2024-03-22T08:26:21;17.45;;;11.27;;
38379;SDS011;38377;47.418;18.882;2024-03-22T08:28:47;18.92;;;11.20;;
38379;SDS011;38377;47.418;18.882;2024-03-22T08:31:13;16.73;;;12.50;;
38379;SDS011;38377;47.418;18.882;2024-03-22T08:33:39;18.05;;;11.45;;
38379;SDS011;38377;47.418;18.882;2024-03-22T08:36:05;23.77;;;12.20;;
38379;SDS011;38377;47.418;18.882;2024-03-22T08:38:31;18.80;;;12.40;;
38379;SDS011;38377;47.418;18.882;2024-03-22T08:40:56;18.00;;;11.57;;
38379;SDS011;38377;47.418;18.882;2024-03-22T08:43:22;18.83;;;12.77;;
38379;SDS011;38377;47.418;18.882;2024-03-22T08:45:50;17.55;;;12.20;;
38379;SDS011;38377;47.418;18.882;2024-03-22T08:48:16;21.35;;;12.23;;
38379;SDS011;38377;47.418;18.882;2024-03-22T08:50:42;17.40;;;11.90;;
38379;SDS011;38377;47.418;18.882;2024-03-22T08:53:09;18.33;;;12.07;;
38379;SDS011;38377;47.418;18.882;2024-03-22T08:55:34;17.25;;;11.73;;
38379;SDS011;38377;47.418;18.882;2024-03-22T08:58:00;16.05;;;11.82;;
38379;SDS011;38377;47.418;18.882;2024-03-22T09:00:26;18.17;;;11.80;;
38379;SDS011;38377;47.418;18.882;2024-03-22T09:02:51;17.65;;;12.18;;
38379;SDS011;38377;47.418;18.882;2024-03-22T09:05:17;15.70;;;11.88;;
38379;SDS011;38377;47.418;18.882;2024-03-22T09:07:43;18.70;;;12.30;;
38379;SDS011;38377;47.418;18.882;2024-03-22T09:10:09;15.50;;;12.80;;
38379;SDS011;38377;47.418;18.882;2024-03-22T09:12:35;20.63;;;12.35;;
38379;SDS011;38377;47.418;18.882;2024-03-22T09:15:01;17.45;;;11.88;;
38379;SDS011;38377;47.418;18.882;2024-03-22T09:17:29;16.92;;;11.82;;
38379;SDS011;38377;47.418;18.882;2024-03-22T09:19:55;17.95;;;11.80;;
38379;SDS011;38377;47.418;18.882;2024-03-22T09:22:20;18.83;;;12.38;;
38379;SDS011;38377;47.418;18.882;2024-03-22T09:24:47;17.95;;;12.18;;
38379;SDS011;38377;47.418;18.882;2024-03-22T09:27:12;16.58;;;11.63;;
38379;SDS011;38377;47.418;18.882;2024-03-22T09:29:38;17.52;;;12.65;;
38379;SDS011;38377;47.418;18.882;2024-03-22T09:32:03;17.58;;;11.88;;
38379;SDS011;38377;47.418;18.882;2024-03-22T09:34:29;19.48;;;12.38;;
38379;SDS011;38377;47.418;18.882;2024-03-22T09:36:55;17.60;;;12.32;;
38379;SDS011;38377;47.418;18.882;2024-03-22T09:39:24;17.75;;;11.82;;
38379;SDS011;38377;47.418;18.882;2024-03-22T09:41:52;18.98;;;13.15;;
38379;SDS011;38377;47.418;18.882;2024-03-22T09:44:21;17.00;;;12.82;;
38379;SDS011;38377;47.418;18.882;2024-03-22T09:46:48;17.10;;;12.43;;
38379;SDS011;38377;47.418;18.882;2024-03-22T09:49:16;16.60;;;11.52;;
38379;SDS011;38377;47.418;18.882;2024-03-22T09:51:42;22.90;;;13.50;;
38379;SDS011;38377;47.418;18.882;2024-03-22T09:54:09;19.80;;;13.27;;
38379;SDS011;38377;47.418;18.882;2024-03-22T09:56:35;18.35;;;12.88;;
38379;SDS011;38377;47.418;18.882;2024-03-22T09:59:04;18.67;;;12.02;;
38379;SDS011;38377;47.418;18.882;2024-03-22T10:01:30;16.45;;;12.05;;
38379;SDS011;38377;47.418;18.882;2024-03-22T10:03:57;17.13;;;13.07;;
38379;SDS011;38377;47.418;18.882;2024-03-22T10:06:22;18.60;;;13.18;;
38379;SDS011;38377;47.418;18.882;2024-03-22T10:08:48;21.90;;;13.95;;
38379;SDS011;38377;47.418;18.882;2024-03-22T10:11:14;17.83;;;12.75;;
38379;SDS011;38377;47.418;18.882;2024-03-22T10:13:39;19.48;;;13.23;;
38379;SDS011;38377;47.418;18.882;2024-03-22T10:16:05;17.20;;;11.07;;
38379;SDS011;38377;47.418;18.882;2024-03-22T10:18:32;18.13;;;11.68;;
38379;SDS011;38377;47.418;18.882;2024-03-22T10:21:02;20.85;;;10.98;;
38379;SDS011;38377;47.418;18.882;2024-03-22T10:23:29;18.08;;;11.73;;
38379;SDS011;38377;47.418;18.882;2024-03-22T10:25:56;14.80;;;11.13;;
38379;SDS011;38377;47.418;18.882;2024-03-22T10:28:23;17.25;;;12.02;;
38379;SDS011;38377;47.418;18.882;2024-03-22T10:30:50;15.63;;;10.70;;
38379;SDS011;38377;47.418;18.882;2024-03-22T10:33:20;14.70;;;10.13;;
38379;SDS011;38377;47.418;18.882;2024-03-22T10:35:51;13.82;;;10.88;;
38379;SDS011;38377;47.418;18.882;2024-03-22T10:38:18;15.77;;;11.10;;
38379;SDS011;38377;47.418;18.882;2024-03-22T10:40:47;14.02;;;10.52;;
38379;SDS011;38377;47.418;18.882;2024-03-22T10:43:14;15.73;;;9.73;;
38379;SDS011;38377;47.418;18.882;2024-03-22T10:45:43;13.60;;;10.38;;
38379;SDS011;38377;47.418;18.882;2024-03-22T10:48:16;14.63;;;10.15;;
38379;SDS011;38377;47.418;18.882;2024-03-22T10:50:44;14.77;;;9.43;;
38379;SDS011;38377;47.418;18.882;2024-03-22T10:53:12;14.18;;;8.85;;
38379;SDS011;38377;47.418;18.882;2024-03-22T10:55:49;13.95;;;9.68;;
38379;SDS011;38377;47.418;18.882;2024-03-22T10:58:17;14.20;;;10.45;;
38379;SDS011;38377;47.418;18.882;2024-03-22T11:00:43;13.35;;;9.43;;
38379;SDS011;38377;47.418;18.882;2024-03-22T11:03:09;16.88;;;10.00;;
38379;SDS011;38377;47.418;18.882;2024-03-22T11:05:44;13.98;;;9.45;;
38379;SDS011;38377;47.418;18.882;2024-03-22T11:08:10;14.93;;;10.23;;
38379;SDS011;38377;47.418;18.882;2024-03-22T11:10:36;13.85;;;10.30;;
38379;SDS011;38377;47.418;18.882;2024-03-22T11:13:02;12.95;;;8.80;;
38379;SDS011;38377;47.418;18.882;2024-03-22T11:15:32;12.43;;;9.02;;
38379;SDS011;38377;47.418;18.882;2024-03-22T11:17:58;12.90;;;8.27;;
38379;SDS011;38377;47.418;18.882;2024-03-22T11:20:25;9.50;;;6.50;;
38379;SDS011;38377;47.418;18.882;2024-03-22T11:22:52;9.25;;;6.75;;
38379;SDS011;38377;47.418;18.882;2024-03-22T11:25:17;9.35;;;5.18;;
38379;SDS011;38377;47.418;18.882;2024-03-22T11:27:44;8.40;;;5.93;;
38379;SDS011;38377;47.418;18.882;2024-03-22T11:30:10;8.20;;;4.70;;
38379;SDS011;38377;47.418;18.882;2024-03-22T11:32:36;7.20;;;3.45;;
38379;SDS011;38377;47.418;18.882;2024-03-22T11:35:09;4.72;;;3.40;;
38379;SDS011;38377;47.418;18.882;2024-03-22T11:37:35;7.43;;;4.70;;
38379;SDS011;38377;47.418;18.882;2024-03-22T11:40:01;6.72;;;4.90;;
38379;SDS011;38377;47.418;18.882;2024-03-22T11:42:30;6.82;;;4.90;;
38379;SDS011;38377;47.418;18.882;2024-03-22T11:44:57;7.97;;;5.28;;
38379;SDS011;38377;47.418;18.882;2024-03-22T11:47:23;9.98;;;6.55;;
38379;SDS011;38377;47.418;18.882;2024-03-22T11:49:49;10.02;;;7.00;;
38379;SDS011;38377;47.418;18.882;2024-03-22T11:52:15;8.55;;;6.18;;
38379;SDS011;38377;47.418;18.882;2024-03-22T11:54:40;10.85;;;6.85;;
38379;SDS011;38377;47.418;18.882;2024-03-22T11:57:07;10.77;;;7.47;;
38379;SDS011;38377;47.418;18.882;2024-03-22T11:59:34;13.18;;;8.23;;
38379;SDS011;38377;47.418;18.882;2024-03-22T12:02:00;9.32;;;7.55;;
38379;SDS011;38377;47.418;18.882;2024-03-22T12:04:25;10.48;;;7.18;;
38379;SDS011;38377;47.418;18.882;2024-03-22T12:06:51;11.85;;;7.75;;
38379;SDS011;38377;47.418;18.882;2024-03-22T12:09:18;9.50;;;6.85;;
38379;SDS011;38377;47.418;18.882;2024-03-22T12:11:43;11.32;;;7.90;;
38379;SDS011;38377;47.418;18.882;2024-03-22T12:14:09;10.45;;;6.97;;
38379;SDS011;38377;47.418;18.882;2024-03-22T12:16:34;11.00;;;7.22;;
38379;SDS011;38377;47.418;18.882;2024-03-22T12:19:01;12.05;;;5.93;;
38379;SDS011;38377;47.418;18.882;2024-03-22T12:21:28;12.80;;;8.38;;
38379;SDS011;38377;47.418;18.882;2024-03-22T12:23:53;13.35;;;6.93;;
38379;SDS011;38377;47.418;18.882;2024-03-22T12:26:19;11.13;;;7.70;;
38379;SDS011;38377;47.418;18.882;2024-03-22T12:28:45;9.25;;;7.05;;
38379;SDS011;38377;47.418;18.882;2024-03-22T12:31:10;13.18;;;8.25;;
38379;SDS011;38377;47.418;18.882;2024-03-22T12:33:36;11.18;;;7.72;;
38379;SDS011;38377;47.418;18.882;2024-03-22T12:36:02;10.65;;;6.88;;
38379;SDS011;38377;47.418;18.882;2024-03-22T12:38:29;10.27;;;7.60;;
38379;SDS011;38377;47.418;18.882;2024-03-22T12:40:54;10.73;;;6.75;;
38379;SDS011;38377;47.418;18.882;2024-03-22T12:43:20;9.85;;;7.45;;
38379;SDS011;38377;47.418;18.882;2024-03-22T12:45:46;10.05;;;6.90;;
38379;SDS011;38377;47.418;18.882;2024-03-22T12:48:12;9.43;;;5.95;;
38379;SDS011;38377;47.418;18.882;2024-03-22T12:50:37;11.25;;;8.07;;
38379;SDS011;38377;47.418;18.882;2024-03-22T12:53:04;8.00;;;6.35;;
38379;SDS011;38377;47.418;18.882;2024-03-22T12:55:29;10.48;;;6.72;;
38379;SDS011;38377;47.418;18.882;2024-03-22T12:57:56;8.60;;;6.28;;
38379;SDS011;38377;47.418;18.882;2024-03-22T13:00:22;10.57;;;6.65;;
38379;SDS011;38377;47.418;18.882;2024-03-22T13:02:48;10.18;;;5.60;;
38379;SDS011;38377;47.418;18.882;2024-03-22T13:05:13;9.68;;;6.22;;
38379;SDS011;38377;47.418;18.882;2024-03-22T13:07:40;8.75;;;6.13;;
38379;SDS011;38377;47.418;18.882;2024-03-22T13:10:07;8.70;;;6.03;;
38379;SDS011;38377;47.418;18.882;2024-03-22T13:12:33;8.32;;;5.45;;
38379;SDS011;38377;47.418;18.882;2024-03-22T13:15:01;8.38;;;5.97;;
38379;SDS011;38377;47.418;18.882;2024-03-22T13:17:27;9.60;;;7.47;;
38379;SDS011;38377;47.418;18.882;2024-03-22T13:19:53;16.95;;;7.28;;
38379;SDS011;38377;47.418;18.882;2024-03-22T13:22:18;9.00;;;6.38;;
38379;SDS011;38377;47.418;18.882;2024-03-22T13:24:44;9.35;;;5.88;;
38379;SDS011;38377;47.418;18.882;2024-03-22T13:27:10;9.82;;;6.22;;
38379;SDS011;38377;47.418;18.882;2024-03-22T13:29:37;14.43;;;7.00;;
38379;SDS011;38377;47.418;18.882;2024-03-22T13:32:04;11.50;;;6.85;;
38379;SDS011;38377;47.418;18.882;2024-03-22T13:34:31;9.40;;;6.10;;
38379;SDS011;38377;47.418;18.882;2024-03-22T13:37:00;7.65;;;5.53;;
38379;SDS011;38377;47.418;18.882;2024-03-22T13:39:26;9.50;;;6.55;;
38379;SDS011;38377;47.418;18.882;2024-03-22T13:41:54;10.35;;;6.75;;
38379;SDS011;38377;47.418;18.882;2024-03-22T13:44:20;13.10;;;6.22;;
38379;SDS011;38377;47.418;18.882;2024-03-22T13:46:55;8.95;;;5.80;;
38379;SDS011;38377;47.418;18.882;2024-03-22T13:49:21;9.00;;;6.80;;
38379;SDS011;38377;47.418;18.882;2024-03-22T13:51:47;8.25;;;6.22;;
38379;SDS011;38377;47.418;18.882;2024-03-22T13:54:13;8.57;;;5.63;;
38379;SDS011;38377;47.418;18.882;2024-03-22T13:56:39;17.05;;;6.95;;
38379;SDS011;38377;47.418;18.882;2024-03-22T13:59:05;12.00;;;7.10;;
38379;SDS011;38377;47.418;18.882;2024-03-22T14:01:34;10.23;;;7.03;;
38379;SDS011;38377;47.418;18.882;2024-03-22T14:04:01;8.40;;;6.40;;
38379;SDS011;38377;47.418;18.882;2024-03-22T14:06:28;9.23;;;6.28;;
38379;SDS011;38377;47.418;18.882;2024-03-22T14:08:54;13.10;;;6.60;;